Ahbra Franco — WDG8801 — position and weather

sailwx.info

Track history (hours):
 
Tides and Currents Weather Stations Pressure Air Temp Water Temp Dewpoint Dewpoint Depression Visibility Wind Speed Wind Dir Waves Ship Positions

Ahbra Franco

Owner: Harley Marine Services, Inc, Seattle, WA. More information available from US FCC via Universal Licensing System and Coast Guard Vessel Documentation Center.

Last reported at 2018-Jul-17 01:30 UTC. Time now 2018-Jul-17 01:39 UTC.
Position N 37°51' W 122°23'.

Length 33 m; draft 6.1 m.

Type: Tug. MMSI: 367581220.

Date/timePositionNaut miles runAvg speedWind from/ knotsBaromVisibWave heightAir tempDewpointWater temp
2018-Jul-17 01:30N 37°51' W 122°23'510.2
2018-Jul-17 01:00N 37°48' W 122°18'0 0.4
2018-Jul-17 00:30N 37°48' W 122°18'7 7.0
2018-Jul-16 23:30N 37°41' W 122°20'6 9.4
2018-Jul-16 22:54N 37°36' W 122°16'3 8.7
2018-Jul-16 22:30N 37°34' W 122°12'3 5.8
2018-Jul-16 22:00N 37°31' W 122°13'0 0.5
2018-Jul-16 21:14N 37°31' W 122°12'1 5.4
2018-Jul-16 20:59N 37°32' W 122°12'3 5.7
2018-Jul-16 20:24N 37°35' W 122°15'0 0.5
2018-Jul-16 20:00N 37°35' W 122°15'4 6.5
2018-Jul-16 19:22N 37°38' W 122°18'3 9.6
2018-Jul-16 19:00N 37°41' W 122°20'510.6
2018-Jul-16 18:30N 37°47' W 122°21'2 3.6
2018-Jul-16 18:00N 37°48' W 122°21'0 0.0
2018-Jul-16 17:30N 37°48' W 122°21'0 0.0
2018-Jul-16 17:00N 37°48' W 122°21'0 0.0
2018-Jul-16 16:30N 37°48' W 122°21'0 0.0
2018-Jul-16 16:00N 37°48' W 122°21'0 0.0
2018-Jul-16 15:30N 37°48' W 122°21'2 4.8
2018-Jul-16 15:00N 37°48' W 122°18'0 0.3
2018-Jul-16 14:30N 37°48' W 122°17'2 3.1
2018-Jul-16 14:00N 37°48' W 122°19'1 2.9
2018-Jul-16 13:30N 37°48' W 122°18'0 1.0
2018-Jul-16 13:00N 37°48' W 122°18'0 0.9
2018-Jul-16 12:30N 37°48' W 122°18'2 3.7
2018-Jul-16 12:00N 37°48' W 122°20'2 4.7
2018-Jul-16 11:30N 37°48' W 122°23'1 1.2
2018-Jul-16 11:00N 37°48' W 122°22'3 6.3
2018-Jul-16 10:31N 37°48' W 122°18'1 1.8
2018-Jul-16 10:00N 37°48' W 122°17'0 0.0
2018-Jul-16 09:30N 37°48' W 122°17'0 0.0
2018-Jul-16 09:00N 37°48' W 122°17'0 0.0
2018-Jul-16 08:30N 37°48' W 122°17'0 0.0
2018-Jul-16 08:00N 37°48' W 122°17'0 0.0
2018-Jul-16 07:30N 37°48' W 122°17'0 0.0
2018-Jul-16 07:00N 37°48' W 122°17'0 0.0
2018-Jul-16 06:30N 37°48' W 122°17'0 0.0
2018-Jul-16 06:00N 37°48' W 122°17'0 0.0
2018-Jul-16 05:30N 37°48' W 122°17'0 0.0
2018-Jul-16 05:00N 37°48' W 122°17'0 0.0
2018-Jul-16 04:30N 37°48' W 122°17'0 0.0
2018-Jul-16 04:00N 37°48' W 122°17'0 0.0
2018-Jul-16 03:30N 37°48' W 122°17'0 0.0
2018-Jul-16 03:00N 37°48' W 122°17'0 0.9
2018-Jul-16 02:30N 37°48' W 122°18'1 2.8
2018-Jul-16 02:01N 37°48' W 122°19'1 1.1
2018-Jul-16 01:30N 37°48' W 122°20'1 2.6
2018-Jul-16 01:01N 37°48' W 122°22'0 0.5
2018-Jul-16 00:30N 37°48' W 122°21'2 4.3
2018-Jul-16 00:00N 37°48' W 122°19'1 2.0
2018-Jul-15 23:31N 37°48' W 122°17'1 2.5
2018-Jul-15 23:00N 37°48' W 122°19'0 0.6
2018-Jul-15 22:30N 37°48' W 122°19'1 2.0
2018-Jul-15 22:00N 37°48' W 122°21'0 0.0
2018-Jul-15 21:30N 37°48' W 122°21'2 3.9
2018-Jul-15 21:00N 37°46' W 122°21'4 8.0
2018-Jul-15 20:30N 37°42' W 122°20'4 8.2
2018-Jul-15 20:00N 37°38' W 122°19'5 8.0
2018-Jul-15 19:26N 37°35' W 122°15'0 0.0
2018-Jul-15 15:42N 37°35' W 122°15'3 9.5
2018-Jul-15 15:22N 37°37' W 122°17'4 9.1
2018-Jul-15 14:59N 37°40' W 122°20'5 9.4
2018-Jul-15 14:30N 37°45' W 122°21'3 6.7
2018-Jul-15 14:00N 37°48' W 122°19'2 3.4
2018-Jul-15 13:30N 37°48' W 122°17'1 1.7
2018-Jul-15 13:00N 37°48' W 122°18'1 1.2
2018-Jul-15 12:30N 37°48' W 122°19'1 1.5
2018-Jul-15 12:00N 37°48' W 122°18'1 1.9
2018-Jul-15 11:30N 37°48' W 122°19'0 0.0
2018-Jul-15 11:00N 37°48' W 122°19'0 0.1
2018-Jul-15 10:30N 37°48' W 122°19'0 0.1
2018-Jul-15 10:00N 37°48' W 122°19'0 0.3
2018-Jul-15 09:30N 37°48' W 122°19'2 3.0
2018-Jul-15 09:00N 37°48' W 122°17'0 0.0
2018-Jul-15 08:30N 37°48' W 122°17'0 0.0
2018-Jul-15 08:00N 37°48' W 122°17'0 0.0
2018-Jul-15 07:30N 37°48' W 122°17'0 0.0
2018-Jul-15 07:00N 37°48' W 122°17'0 0.0
2018-Jul-15 06:30N 37°48' W 122°17'0 0.0
2018-Jul-15 06:00N 37°48' W 122°17'0 0.0
2018-Jul-15 05:30N 37°48' W 122°17'0 0.0
2018-Jul-15 05:00N 37°48' W 122°17'0 0.0
2018-Jul-15 04:30N 37°48' W 122°17'0 0.0
2018-Jul-15 04:00N 37°48' W 122°17'0 0.0
2018-Jul-15 03:30N 37°48' W 122°17'0 0.0
2018-Jul-15 03:00N 37°48' W 122°17'1 2.9
2018-Jul-15 02:30N 37°48' W 122°19'4 7.5
2018-Jul-15 02:00N 37°44' W 122°20'510.9
2018-Jul-15 01:30N 37°39' W 122°19'5 1.9
2018-Jul-14 22:48N 37°35' W 122°15'2 5.6
2018-Jul-14 22:22N 37°36' W 122°17'4 8.6
2018-Jul-14 21:53N 37°40' W 122°19'4 9.3
2018-Jul-14 21:30N 37°44' W 122°20'4 8.7
2018-Jul-14 21:00N 37°48' W 122°20'2 4.0
2018-Jul-14 20:30N 37°48' W 122°17'0 0.0
2018-Jul-14 20:00N 37°48' W 122°17'0 0.0
2018-Jul-14 19:30N 37°48' W 122°17'0 0.0
2018-Jul-14 19:00N 37°48' W 122°17'0 0.0
2018-Jul-14 18:30N 37°48' W 122°17'0 0.0
2018-Jul-14 18:00N 37°48' W 122°17'0 0.0
2018-Jul-14 17:30N 37°48' W 122°17'0 0.0
2018-Jul-14 17:00N 37°48' W 122°17'0 0.0
2018-Jul-14 16:30N 37°48' W 122°17'0 0.0
2018-Jul-14 16:00N 37°48' W 122°17'0 0.0
2018-Jul-14 15:30N 37°48' W 122°17'0 0.0
2018-Jul-14 15:00N 37°48' W 122°17'0 0.0
2018-Jul-14 14:31N 37°48' W 122°17'2 1.9
2018-Jul-14 13:30N 37°48' W 122°20'3 5.4
2018-Jul-14 13:01N 37°48' W 122°23'0 0.5
2018-Jul-14 12:31N 37°48' W 122°23'2 3.3
2018-Jul-14 12:00N 37°48' W 122°21'3 5.5
2018-Jul-14 11:30N 37°48' W 122°17'0 0.0
2018-Jul-14 11:00N 37°48' W 122°17'0 0.0
2018-Jul-14 10:30N 37°48' W 122°17'0 0.0
2018-Jul-14 10:00N 37°48' W 122°17'0 0.0
2018-Jul-14 09:30N 37°48' W 122°17'0 0.0
2018-Jul-14 09:00N 37°48' W 122°17'0 0.0
2018-Jul-14 08:30N 37°48' W 122°17'0 0.0
2018-Jul-14 08:00N 37°48' W 122°17'0 0.0
2018-Jul-14 07:30N 37°48' W 122°17'0 0.0
2018-Jul-14 07:00N 37°48' W 122°17'3 6.4
2018-Jul-14 06:30N 37°47' W 122°21'1 2.3
2018-Jul-14 06:00N 37°46' W 122°22'3 5.1
2018-Jul-14 05:30N 37°48' W 122°23'2 4.8
2018-Jul-14 05:00N 37°49' W 122°20'0 0.0
2018-Jul-14 04:30N 37°49' W 122°20'0 0.0
2018-Jul-14 04:00N 37°49' W 122°20'0 0.0
2018-Jul-14 03:30N 37°49' W 122°20'0 0.0
2018-Jul-14 03:00N 37°49' W 122°20'0 0.0
2018-Jul-14 02:30N 37°49' W 122°20'0 0.0
2018-Jul-14 02:00N 37°49' W 122°20'1 2.0
2018-Jul-14 01:30N 37°48' W 122°19'0 0.2
2018-Jul-14 01:00N 37°48' W 122°19'3 5.5
2018-Jul-14 00:30N 37°48' W 122°23'1 2.0
2018-Jul-14 00:00N 37°48' W 122°22'2 3.7
2018-Jul-13 23:30N 37°48' W 122°19'1 1.7
2018-Jul-13 23:00N 37°48' W 122°18'0 0.7
2018-Jul-13 22:30N 37°48' W 122°18'2 3.7
2018-Jul-13 22:00N 37°48' W 122°20'2 4.2
2018-Jul-13 21:30N 37°48' W 122°23'2 3.6
2018-Jul-13 21:00N 37°48' W 122°21'0 0.0
2018-Jul-13 20:30N 37°48' W 122°21'0 0.0
2018-Jul-13 20:00N 37°48' W 122°21'0 0.0
2018-Jul-13 19:30N 37°48' W 122°21'0 0.0
2018-Jul-13 19:00N 37°48' W 122°21'3 5.4
2018-Jul-13 18:30N 37°48' W 122°17'0 0.2
2018-Jul-13 18:00N 37°48' W 122°17'0 0.0
2018-Jul-13 17:30N 37°48' W 122°17'0 0.0
2018-Jul-13 17:00N 37°48' W 122°17'0 0.0
2018-Jul-13 16:30N 37°48' W 122°17'0 0.0
2018-Jul-13 16:00N 37°48' W 122°17'0 0.0
2018-Jul-13 15:30N 37°48' W 122°17'0 0.0
2018-Jul-13 15:00N 37°48' W 122°17'2 1.5
2018-Jul-13 14:01N 37°48' W 122°19'1 1.4
2018-Jul-13 13:30N 37°48' W 122°20'2 4.2
2018-Jul-13 13:00N 37°48' W 122°23'2 3.2
2018-Jul-13 12:30N 37°48' W 122°21'3 5.5
2018-Jul-13 12:00N 37°48' W 122°17'0 0.0
2018-Jul-13 11:30N 37°48' W 122°17'0 0.0
2018-Jul-13 11:00N 37°48' W 122°17'0 0.0
2018-Jul-13 10:30N 37°48' W 122°17'0 0.0
2018-Jul-13 10:00N 37°48' W 122°17'0 0.0
2018-Jul-13 09:30N 37°48' W 122°17'0 0.0
2018-Jul-13 09:00N 37°48' W 122°17'0 0.0
2018-Jul-13 08:30N 37°48' W 122°17'0 0.0
2018-Jul-13 08:00N 37°48' W 122°17'0 0.0
2018-Jul-13 07:30N 37°48' W 122°17'0 0.0
2018-Jul-13 07:00N 37°48' W 122°17'0 0.0
2018-Jul-13 06:30N 37°48' W 122°17'0 0.0
2018-Jul-13 06:00N 37°48' W 122°17'0 0.0
2018-Jul-13 05:30N 37°48' W 122°17'0 0.0
2018-Jul-13 05:00N 37°48' W 122°17'0 0.0
2018-Jul-13 04:30N 37°48' W 122°17'0 0.0
2018-Jul-13 04:00N 37°48' W 122°17'0 0.0
2018-Jul-13 03:30N 37°48' W 122°17'0 0.0
2018-Jul-13 03:00N 37°48' W 122°17'0 0.0
2018-Jul-13 02:30N 37°48' W 122°17'0 0.0
2018-Jul-13 02:00N 37°48' W 122°17'1 3.0
2018-Jul-13 01:30N 37°48' W 122°19'1 2.6
2018-Jul-13 01:00N 37°48' W 122°20'0 0.1
2018-Jul-13 00:30N 37°48' W 122°20'3 5.4
2018-Jul-13 00:00N 37°48' W 122°17'0 0.0
2018-Jul-12 23:30N 37°48' W 122°17'0 0.0
2018-Jul-12 23:00N 37°48' W 122°17'0 0.0
2018-Jul-12 22:30N 37°48' W 122°17'0 0.0
2018-Jul-12 22:00N 37°48' W 122°17'0 0.0
2018-Jul-12 21:30N 37°48' W 122°17'0 0.0
2018-Jul-12 21:00N 37°48' W 122°17'0 0.0
2018-Jul-12 20:30N 37°48' W 122°17'0 0.0
2018-Jul-12 20:00N 37°48' W 122°17'0 0.0
2018-Jul-12 19:30N 37°48' W 122°17'0 0.0
2018-Jul-12 19:00N 37°48' W 122°17'0 0.0
2018-Jul-12 18:30N 37°48' W 122°17'0 0.0
2018-Jul-12 18:00N 37°48' W 122°17'0 0.0
2018-Jul-12 17:30N 37°48' W 122°17'0 0.0
2018-Jul-12 17:00N 37°48' W 122°17'0 0.0
2018-Jul-12 16:29N 37°48' W 122°17'0 0.0
2018-Jul-12 16:00N 37°48' W 122°17'0 0.0
2018-Jul-12 15:30N 37°48' W 122°17'0 0.0
2018-Jul-12 15:00N 37°48' W 122°17'0 0.0
2018-Jul-12 14:30N 37°48' W 122°17'0 0.0
2018-Jul-12 14:00N 37°48' W 122°17'0 0.0
2018-Jul-12 13:30N 37°48' W 122°17'1 2.8
2018-Jul-12 13:00N 37°48' W 122°19'0 0.9
2018-Jul-12 12:30N 37°48' W 122°18'0 0.3
2018-Jul-12 12:00N 37°48' W 122°18'3 6.2
2018-Jul-12 11:31N 37°48' W 122°22'0 0.4
2018-Jul-12 11:01N 37°48' W 122°22'1 2.6
2018-Jul-12 10:31N 37°48' W 122°20'2 4.7
2018-Jul-12 10:00N 37°48' W 122°18'0 0.0
2018-Jul-12 09:31N 37°48' W 122°18'0 0.1
2018-Jul-12 09:00N 37°48' W 122°18'0 0.3
2018-Jul-12 08:30N 37°48' W 122°18'1 1.1
2018-Jul-12 08:00N 37°48' W 122°17'0 0.0
2018-Jul-12 07:30N 37°48' W 122°17'0 0.0
2018-Jul-12 07:00N 37°48' W 122°17'0 0.0
2018-Jul-12 06:30N 37°48' W 122°17'0 0.0
2018-Jul-12 05:59N 37°48' W 122°17'0 0.0
2018-Jul-12 05:30N 37°48' W 122°17'0 0.0
2018-Jul-12 05:00N 37°48' W 122°17'0 0.0
2018-Jul-12 04:30N 37°48' W 122°17'0 0.0
2018-Jul-12 04:00N 37°48' W 122°17'0 0.0
2018-Jul-12 03:30N 37°48' W 122°17'0 0.0
2018-Jul-12 03:00N 37°48' W 122°17'1 2.7
2018-Jul-12 02:31N 37°48' W 122°19'1 2.2
2018-Jul-12 02:00N 37°48' W 122°17'1 2.7
2018-Jul-12 01:30N 37°48' W 122°19'0 0.2
2018-Jul-12 01:00N 37°48' W 122°19'0 0.1
2018-Jul-12 00:30N 37°48' W 122°19'1 2.2
2018-Jul-12 00:00N 37°48' W 122°21'0 0.0
2018-Jul-11 23:30N 37°48' W 122°21'0 0.0
2018-Jul-11 23:00N 37°48' W 122°21'1 2.9
2018-Jul-11 22:31N 37°48' W 122°19'0 0.0
2018-Jul-11 22:00N 37°48' W 122°19'1 2.6
2018-Jul-11 21:30N 37°47' W 122°17'0 0.0
2018-Jul-11 21:00N 37°47' W 122°17'0 0.0
2018-Jul-11 20:30N 37°48' W 122°17'0 0.2
2018-Jul-11 20:00N 37°48' W 122°17'0 0.0
2018-Jul-11 19:30N 37°48' W 122°17'0 0.0
2018-Jul-11 19:00N 37°48' W 122°17'0 0.0
2018-Jul-11 18:30N 37°48' W 122°17'0 0.0
2018-Jul-11 18:00N 37°48' W 122°17'0 0.0
2018-Jul-11 17:28N 37°48' W 122°17'0 0.0
2018-Jul-11 17:00N 37°48' W 122°17'0 0.0
2018-Jul-11 16:30N 37°48' W 122°17'0 0.0
2018-Jul-11 15:59N 37°48' W 122°17'0 0.0
2018-Jul-11 15:30N 37°48' W 122°17'0 0.0
2018-Jul-11 15:00N 37°48' W 122°17'0 0.0
2018-Jul-11 14:29N 37°48' W 122°17'0 0.0
2018-Jul-11 14:00N 37°48' W 122°17'1 1.5
2018-Jul-11 13:30N 37°48' W 122°18'0 0.4
2018-Jul-11 13:00N 37°48' W 122°18'0 0.6
2018-Jul-11 12:31N 37°48' W 122°17'1 2.3
2018-Jul-11 12:00N 37°48' W 122°19'3 6.5
2018-Jul-11 11:31N 37°48' W 122°23'1 2.5
2018-Jul-11 11:00N 37°48' W 122°21'3 5.4
2018-Jul-11 10:30N 37°48' W 122°18'1 1.4
2018-Jul-11 10:00N 37°48' W 122°17'0 0.0
2018-Jul-11 09:30N 37°48' W 122°17'0 0.0
2018-Jul-11 09:00N 37°48' W 122°17'0 0.0
2018-Jul-11 08:30N 37°48' W 122°17'0 0.0
2018-Jul-11 08:00N 37°48' W 122°17'0 0.0
2018-Jul-11 07:30N 37°48' W 122°17'0 0.0
2018-Jul-11 07:00N 37°48' W 122°17'0 0.0
2018-Jul-11 06:30N 37°48' W 122°17'0 0.0
2018-Jul-11 06:00N 37°48' W 122°17'0 0.0
2018-Jul-11 05:30N 37°48' W 122°17'0 0.0
2018-Jul-11 05:00N 37°48' W 122°17'0 0.0
2018-Jul-11 04:30N 37°48' W 122°17'0 0.0
2018-Jul-11 04:00N 37°48' W 122°17'0 0.0
2018-Jul-11 03:30N 37°48' W 122°17'2 3.2
2018-Jul-11 03:00N 37°48' W 122°19'1 3.0
2018-Jul-11 02:30N 37°48' W 122°17'1 1.8
2018-Jul-11 02:01N 37°48' W 122°18'0 0.7
2018-Jul-11 01:30N 37°48' W 122°19'0 0.1
2018-Jul-11 01:00N 37°48' W 122°19'1 2.6
2018-Jul-11 00:30N 37°48' W 122°17'1 2.9
2018-Jul-11 00:00N 37°48' W 122°19'3 5.9
2018-Jul-10 23:30N 37°48' W 122°23'0 0.2
2018-Jul-10 23:00N 37°48' W 122°23'3 5.8
2018-Jul-10 22:30N 37°48' W 122°19'2 3.0
2018-Jul-10 22:00N 37°48' W 122°17'0 0.0
2018-Jul-10 21:30N 37°48' W 122°17'0 0.0
2018-Jul-10 21:00N 37°48' W 122°17'0 0.0
2018-Jul-10 20:30N 37°48' W 122°17'0 0.0
2018-Jul-10 20:00N 37°48' W 122°17'0 0.0
2018-Jul-10 19:30N 37°48' W 122°17'0 0.0
2018-Jul-10 19:00N 37°48' W 122°17'0 0.0
2018-Jul-10 18:30N 37°48' W 122°17'0 0.0
2018-Jul-10 18:00N 37°48' W 122°17'0 0.0
2018-Jul-10 17:30N 37°48' W 122°17'0 0.0
2018-Jul-10 17:00N 37°48' W 122°17'0 0.0
2018-Jul-10 16:30N 37°48' W 122°17'0 0.0
2018-Jul-10 16:00N 37°48' W 122°17'0 0.0
2018-Jul-10 15:30N 37°48' W 122°17'0 0.0
2018-Jul-10 14:59N 37°48' W 122°17'0 0.0
2018-Jul-10 14:30N 37°48' W 122°17'0 0.2
2018-Jul-10 14:00N 37°48' W 122°17'1 1.1
2018-Jul-10 13:31N 37°48' W 122°18'1 2.3
2018-Jul-10 13:00N 37°48' W 122°19'2 3.1
2018-Jul-10 12:30N 37°48' W 122°17'1 2.4
2018-Jul-10 12:00N 37°48' W 122°19'3 6.0
2018-Jul-10 11:30N 37°48' W 122°23'4 8.7
2018-Jul-10 11:00N 37°48' W 122°17'0 0.0
2018-Jul-10 10:30N 37°48' W 122°17'0 0.0
2018-Jul-10 10:00N 37°48' W 122°17'0 0.0
2018-Jul-10 09:30N 37°48' W 122°17'0 0.0
2018-Jul-10 09:00N 37°48' W 122°17'0 0.0
2018-Jul-10 08:30N 37°48' W 122°17'0 0.0
2018-Jul-10 08:00N 37°48' W 122°17'0 0.0
2018-Jul-10 07:30N 37°48' W 122°17'0 0.0
2018-Jul-10 07:00N 37°48' W 122°17'0 0.0
2018-Jul-10 06:30N 37°48' W 122°17'0 0.0
2018-Jul-10 06:00N 37°48' W 122°17'0 0.0
2018-Jul-10 05:30N 37°48' W 122°17'0 0.0
2018-Jul-10 05:00N 37°48' W 122°17'0 0.0
2018-Jul-10 04:30N 37°48' W 122°17'2 4.8
2018-Jul-10 04:00N 37°48' W 122°20'4 8.1
2018-Jul-10 03:30N 37°44' W 122°20'4 8.0
2018-Jul-10 03:00N 37°48' W 122°22'3 6.7
2018-Jul-10 02:30N 37°48' W 122°18'1 1.6
2018-Jul-10 02:00N 37°48' W 122°19'0 0.2
2018-Jul-10 01:30N 37°48' W 122°19'0 0.0
2018-Jul-10 01:00N 37°48' W 122°19'1 1.5
2018-Jul-10 00:30N 37°48' W 122°20'2 4.7
2018-Jul-10 00:00N 37°48' W 122°23'2 3.1
2018-Jul-09 23:30N 37°48' W 122°21'0 0.0
2018-Jul-09 23:00N 37°48' W 122°21'1 2.5
2018-Jul-09 22:30N 37°48' W 122°22'510.0
2018-Jul-09 22:00N 37°53' W 122°25'3 5.2
2018-Jul-09 21:30N 37°55' W 122°25'0 0.1
2018-Jul-09 20:59N 37°55' W 122°25'3 5.3
2018-Jul-09 20:30N 37°53' W 122°25'0 0.8
2018-Jul-09 20:00N 37°53' W 122°25'2 3.4
2018-Jul-09 19:30N 37°51' W 122°24'3 6.2
2018-Jul-09 19:00N 37°48' W 122°22'4 7.8
2018-Jul-09 18:30N 37°48' W 122°17'0 0.0
2018-Jul-09 18:01N 37°48' W 122°17'0 0.0
2018-Jul-09 17:30N 37°48' W 122°17'0 0.0
2018-Jul-09 17:00N 37°48' W 122°17'0 0.0
2018-Jul-09 16:30N 37°48' W 122°17'0 0.0
2018-Jul-09 16:00N 37°48' W 122°17'1 1.2
2018-Jul-09 15:30N 37°48' W 122°18'1 2.1
2018-Jul-09 15:01N 37°48' W 122°19'2 4.3
2018-Jul-09 14:31N 37°48' W 122°22'1 1.3
2018-Jul-09 14:01N 37°48' W 122°23'4 8.3
2018-Jul-09 13:31N 37°48' W 122°17'0 0.4
2018-Jul-09 13:00N 37°48' W 122°17'0 0.0
2018-Jul-09 12:30N 37°48' W 122°17'0 0.0
2018-Jul-09 12:00N 37°48' W 122°17'0 0.0
2018-Jul-09 11:30N 37°48' W 122°17'0 0.0
2018-Jul-09 11:00N 37°48' W 122°17'0 0.0
2018-Jul-09 10:30N 37°48' W 122°17'0 0.0
2018-Jul-09 10:00N 37°48' W 122°17'0 0.0
2018-Jul-09 09:27N 37°48' W 122°17'0 0.0
2018-Jul-09 09:00N 37°48' W 122°17'0 0.0
2018-Jul-09 08:30N 37°48' W 122°17'0 0.0
2018-Jul-09 08:00N 37°48' W 122°17'0 0.0
2018-Jul-09 07:30N 37°48' W 122°17'0 0.0
2018-Jul-09 07:00N 37°48' W 122°17'0 0.0
2018-Jul-09 06:30N 37°48' W 122°17'0 0.0
2018-Jul-09 06:00N 37°48' W 122°17'0 0.0
2018-Jul-09 05:30N 37°48' W 122°17'0 0.0
2018-Jul-09 05:00N 37°48' W 122°17'0 0.0
2018-Jul-09 04:30N 37°48' W 122°17'0 0.0
2018-Jul-09 04:00N 37°48' W 122°17'0 0.0
2018-Jul-09 03:30N 37°48' W 122°17'0 0.0
2018-Jul-09 03:00N 37°48' W 122°17'0 0.0
2018-Jul-09 02:30N 37°48' W 122°17'0 0.0
2018-Jul-09 02:00N 37°48' W 122°17'0 0.0
2018-Jul-09 01:29N 37°48' W 122°17'0 0.0
2018-Jul-09 01:00N 37°48' W 122°17'0 0.0
2018-Jul-09 00:30N 37°48' W 122°17'0 0.0
2018-Jul-09 00:00N 37°48' W 122°17'0 0.0
2018-Jul-08 23:30N 37°48' W 122°17'0 0.0
2018-Jul-08 23:00N 37°48' W 122°17'0 0.0
2018-Jul-08 22:30N 37°48' W 122°17'0 0.0
2018-Jul-08 22:00N 37°48' W 122°17'0 0.0
2018-Jul-08 21:30N 37°48' W 122°17'0 0.0
2018-Jul-08 21:00N 37°48' W 122°17'0 0.0
2018-Jul-08 20:30N 37°48' W 122°17'0 0.0
2018-Jul-08 20:00N 37°48' W 122°17'0 0.0
2018-Jul-08 19:30N 37°48' W 122°17'0 0.0
2018-Jul-08 19:00N 37°48' W 122°17'0 0.0
2018-Jul-08 18:30N 37°48' W 122°17'0 0.0
2018-Jul-08 18:00N 37°48' W 122°17'0 0.0
2018-Jul-08 17:30N 37°48' W 122°17'0 0.0
2018-Jul-08 17:00N 37°48' W 122°17'0 0.0
2018-Jul-08 16:30N 37°48' W 122°17'0 0.0
2018-Jul-08 16:00N 37°48' W 122°17'0 0.0
2018-Jul-08 15:30N 37°48' W 122°17'0 0.0
2018-Jul-08 15:00N 37°48' W 122°17'0 0.0
2018-Jul-08 14:30N 37°48' W 122°17'0 0.0
2018-Jul-08 13:59N 37°48' W 122°17'0 0.0
2018-Jul-08 13:30N 37°48' W 122°17'0 0.0
2018-Jul-08 13:00N 37°48' W 122°17'2 3.5
2018-Jul-08 12:30N 37°48' W 122°19'1 1.6
2018-Jul-08 12:01N 37°48' W 122°20'0 0.2
2018-Jul-08 11:30N 37°48' W 122°20'1 2.6
2018-Jul-08 11:00N 37°48' W 122°19'0 0.1
2018-Jul-08 10:31N 37°48' W 122°18'1 2.2
2018-Jul-08 10:00N 37°48' W 122°17'0 0.0
2018-Jul-08 09:30N 37°48' W 122°17'0 0.0
2018-Jul-08 09:00N 37°48' W 122°17'0 0.0
2018-Jul-08 08:30N 37°48' W 122°17'0 0.0
2018-Jul-08 08:00N 37°48' W 122°17'0 0.0
2018-Jul-08 07:30N 37°48' W 122°17'0 0.0
2018-Jul-08 07:00N 37°48' W 122°17'0 0.0
2018-Jul-08 06:30N 37°48' W 122°17'0 0.0
2018-Jul-08 06:00N 37°48' W 122°17'4 8.7
2018-Jul-08 05:30N 37°48' W 122°23'5 9.6
2018-Jul-08 05:00N 37°53' W 122°25'8 9.7
2018-Jul-08 04:12N 38°01' W 122°24'2 9.3
2018-Jul-08 04:00N 38°02' W 122°22'4 8.7
2018-Jul-08 03:30N 38°03' W 122°17'4 8.1
2018-Jul-08 03:00N 38°04' W 122°12'4 7.0
2018-Jul-08 02:30N 38°03' W 122°08'0 0.6
2018-Jul-08 01:47N 38°02' W 122°08'2 5.0
2018-Jul-08 01:24N 38°03' W 122°11'6 8.5
2018-Jul-08 00:42N 38°03' W 122°18'3 8.5
2018-Jul-08 00:17N 38°02' W 122°22'610.8
2018-Jul-07 23:45N 37°57' W 122°27'311.5
2018-Jul-07 23:30N 37°55' W 122°27'510.8
2018-Jul-07 23:00N 37°50' W 122°24'5 9.1
2018-Jul-07 22:30N 37°46' W 122°21'0 0.5
2018-Jul-07 22:00N 37°46' W 122°21'2 3.4
2018-Jul-07 21:30N 37°47' W 122°22'4 8.6
2018-Jul-07 21:00N 37°49' W 122°27'3 5.5
2018-Jul-07 20:30N 37°48' W 122°30'0 0.2
2018-Jul-07 20:00N 37°48' W 122°30'2 3.3
2018-Jul-07 19:31N 37°49' W 122°29'510.8
2018-Jul-07 19:00N 37°48' W 122°22'1 2.0
2018-Jul-07 18:30N 37°48' W 122°21'0 0.0
2018-Jul-07 18:00N 37°48' W 122°21'0 0.0
2018-Jul-07 17:30N 37°48' W 122°21'0 0.0
2018-Jul-07 17:00N 37°48' W 122°21'0 0.0
2018-Jul-07 16:30N 37°48' W 122°21'2 3.8
2018-Jul-07 16:00N 37°47' W 122°21'2 3.5
2018-Jul-07 15:30N 37°48' W 122°20'0 0.9
2018-Jul-07 15:00N 37°48' W 122°20'1 1.4
2018-Jul-07 14:29N 37°48' W 122°19'1 2.6
2018-Jul-07 14:00N 37°48' W 122°17'0 0.0
2018-Jul-07 13:30N 37°48' W 122°17'0 0.0
2018-Jul-07 13:00N 37°48' W 122°17'0 0.0
2018-Jul-07 12:30N 37°48' W 122°17'1 2.1
2018-Jul-07 12:00N 37°48' W 122°18'1 1.5
2018-Jul-07 11:30N 37°48' W 122°19'1 2.3
2018-Jul-07 11:01N 37°48' W 122°18'0 0.9
2018-Jul-07 10:30N 37°48' W 122°18'1 1.3
2018-Jul-07 10:00N 37°48' W 122°19'0 0.0
2018-Jul-07 09:30N 37°48' W 122°19'2 3.5
2018-Jul-07 09:00N 37°48' W 122°17'0 0.0
2018-Jul-07 08:30N 37°48' W 122°17'0 0.0
2018-Jul-07 08:00N 37°48' W 122°17'0 0.0
2018-Jul-07 07:30N 37°48' W 122°17'0 0.0
2018-Jul-07 07:00N 37°48' W 122°17'0 0.0
2018-Jul-07 06:31N 37°48' W 122°17'0 0.0
2018-Jul-07 06:00N 37°48' W 122°17'0 0.0
2018-Jul-07 05:30N 37°48' W 122°17'0 0.0
2018-Jul-07 05:00N 37°48' W 122°17'0 0.0
2018-Jul-07 04:30N 37°48' W 122°17'0 0.0
2018-Jul-07 04:00N 37°48' W 122°17'0 0.7
2018-Jul-07 03:30N 37°48' W 122°18'0 0.7
2018-Jul-07 03:00N 37°48' W 122°17'0 0.0
2018-Jul-07 02:30N 37°48' W 122°17'0 0.0
2018-Jul-07 02:00N 37°48' W 122°17'  
Track history (hours):
 
Tides and Currents Weather Stations Pressure Air Temp Water Temp Dewpoint Dewpoint Depression Visibility Wind Speed Wind Dir Waves Ship Positions

Ahbra Franco

Owner: Harley Marine Services, Inc, Seattle, WA. More information available from US FCC via Universal Licensing System and Coast Guard Vessel Documentation Center.

Last reported at 2018-Jul-17 01:30 UTC. Time now 2018-Jul-17 01:39 UTC.
Position N 37°51' W 122°23'.

Length 33 m; draft 6.1 m.

Type: Tug. MMSI: 367581220.

Date/timePositionNaut miles runAvg speedWind from/ knotsBaromVisibWave heightAir tempDewpointWater temp
2018-Jul-17 01:30N 37°51' W 122°23'510.2
2018-Jul-17 01:00N 37°48' W 122°18'0 0.4
2018-Jul-17 00:30N 37°48' W 122°18'7 7.0
2018-Jul-16 23:30N 37°41' W 122°20'6 9.4
2018-Jul-16 22:54N 37°36' W 122°16'3 8.7
2018-Jul-16 22:30N 37°34' W 122°12'3 5.8
2018-Jul-16 22:00N 37°31' W 122°13'0 0.5
2018-Jul-16 21:14N 37°31' W 122°12'1 5.4
2018-Jul-16 20:59N 37°32' W 122°12'3 5.7
2018-Jul-16 20:24N 37°35' W 122°15'0 0.5
2018-Jul-16 20:00N 37°35' W 122°15'4 6.5
2018-Jul-16 19:22N 37°38' W 122°18'3 9.6
2018-Jul-16 19:00N 37°41' W 122°20'510.6
2018-Jul-16 18:30N 37°47' W 122°21'2 3.6
2018-Jul-16 18:00N 37°48' W 122°21'0 0.0
2018-Jul-16 17:30N 37°48' W 122°21'0 0.0
2018-Jul-16 17:00N 37°48' W 122°21'0 0.0
2018-Jul-16 16:30N 37°48' W 122°21'0 0.0
2018-Jul-16 16:00N 37°48' W 122°21'0 0.0
2018-Jul-16 15:30N 37°48' W 122°21'2 4.8
2018-Jul-16 15:00N 37°48' W 122°18'0 0.3
2018-Jul-16 14:30N 37°48' W 122°17'2 3.1
2018-Jul-16 14:00N 37°48' W 122°19'1 2.9
2018-Jul-16 13:30N 37°48' W 122°18'0 1.0
2018-Jul-16 13:00N 37°48' W 122°18'0 0.9
2018-Jul-16 12:30N 37°48' W 122°18'2 3.7
2018-Jul-16 12:00N 37°48' W 122°20'2 4.7
2018-Jul-16 11:30N 37°48' W 122°23'1 1.2
2018-Jul-16 11:00N 37°48' W 122°22'3 6.3
2018-Jul-16 10:31N 37°48' W 122°18'1 1.8
2018-Jul-16 10:00N 37°48' W 122°17'0 0.0
2018-Jul-16 09:30N 37°48' W 122°17'0 0.0
2018-Jul-16 09:00N 37°48' W 122°17'0 0.0
2018-Jul-16 08:30N 37°48' W 122°17'0 0.0
2018-Jul-16 08:00N 37°48' W 122°17'0 0.0
2018-Jul-16 07:30N 37°48' W 122°17'0 0.0
2018-Jul-16 07:00N 37°48' W 122°17'0 0.0
2018-Jul-16 06:30N 37°48' W 122°17'0 0.0
2018-Jul-16 06:00N 37°48' W 122°17'0 0.0
2018-Jul-16 05:30N 37°48' W 122°17'0 0.0
2018-Jul-16 05:00N 37°48' W 122°17'0 0.0
2018-Jul-16 04:30N 37°48' W 122°17'0 0.0
2018-Jul-16 04:00N 37°48' W 122°17'0 0.0
2018-Jul-16 03:30N 37°48' W 122°17'0 0.0
2018-Jul-16 03:00N 37°48' W 122°17'0 0.9
2018-Jul-16 02:30N 37°48' W 122°18'1 2.8
2018-Jul-16 02:01N 37°48' W 122°19'1 1.1
2018-Jul-16 01:30N 37°48' W 122°20'1 2.6
2018-Jul-16 01:01N 37°48' W 122°22'0 0.5
2018-Jul-16 00:30N 37°48' W 122°21'2 4.3
2018-Jul-16 00:00N 37°48' W 122°19'1 2.0
2018-Jul-15 23:31N 37°48' W 122°17'1 2.5
2018-Jul-15 23:00N 37°48' W 122°19'0 0.6
2018-Jul-15 22:30N 37°48' W 122°19'1 2.0
2018-Jul-15 22:00N 37°48' W 122°21'0 0.0
2018-Jul-15 21:30N 37°48' W 122°21'2 3.9
2018-Jul-15 21:00N 37°46' W 122°21'4 8.0
2018-Jul-15 20:30N 37°42' W 122°20'4 8.2
2018-Jul-15 20:00N 37°38' W 122°19'5 8.0
2018-Jul-15 19:26N 37°35' W 122°15'0 0.0
2018-Jul-15 15:42N 37°35' W 122°15'3 9.5
2018-Jul-15 15:22N 37°37' W 122°17'4 9.1
2018-Jul-15 14:59N 37°40' W 122°20'5 9.4
2018-Jul-15 14:30N 37°45' W 122°21'3 6.7
2018-Jul-15 14:00N 37°48' W 122°19'2 3.4
2018-Jul-15 13:30N 37°48' W 122°17'1 1.7
2018-Jul-15 13:00N 37°48' W 122°18'1 1.2
2018-Jul-15 12:30N 37°48' W 122°19'1 1.5
2018-Jul-15 12:00N 37°48' W 122°18'1 1.9
2018-Jul-15 11:30N 37°48' W 122°19'0 0.0
2018-Jul-15 11:00N 37°48' W 122°19'0 0.1
2018-Jul-15 10:30N 37°48' W 122°19'0 0.1
2018-Jul-15 10:00N 37°48' W 122°19'0 0.3
2018-Jul-15 09:30N 37°48' W 122°19'2 3.0
2018-Jul-15 09:00N 37°48' W 122°17'0 0.0
2018-Jul-15 08:30N 37°48' W 122°17'0 0.0
2018-Jul-15 08:00N 37°48' W 122°17'0 0.0
2018-Jul-15 07:30N 37°48' W 122°17'0 0.0
2018-Jul-15 07:00N 37°48' W 122°17'0 0.0
2018-Jul-15 06:30N 37°48' W 122°17'0 0.0
2018-Jul-15 06:00N 37°48' W 122°17'0 0.0
2018-Jul-15 05:30N 37°48' W 122°17'0 0.0
2018-Jul-15 05:00N 37°48' W 122°17'0 0.0
2018-Jul-15 04:30N 37°48' W 122°17'0 0.0
2018-Jul-15 04:00N 37°48' W 122°17'0 0.0
2018-Jul-15 03:30N 37°48' W 122°17'0 0.0
2018-Jul-15 03:00N 37°48' W 122°17'1 2.9
2018-Jul-15 02:30N 37°48' W 122°19'4 7.5
2018-Jul-15 02:00N 37°44' W 122°20'510.9
2018-Jul-15 01:30N 37°39' W 122°19'5 1.9
2018-Jul-14 22:48N 37°35' W 122°15'2 5.6
2018-Jul-14 22:22N 37°36' W 122°17'4 8.6
2018-Jul-14 21:53N 37°40' W 122°19'4 9.3
2018-Jul-14 21:30N 37°44' W 122°20'4 8.7
2018-Jul-14 21:00N 37°48' W 122°20'2 4.0
2018-Jul-14 20:30N 37°48' W 122°17'0 0.0
2018-Jul-14 20:00N 37°48' W 122°17'0 0.0
2018-Jul-14 19:30N 37°48' W 122°17'0 0.0
2018-Jul-14 19:00N 37°48' W 122°17'0 0.0
2018-Jul-14 18:30N 37°48' W 122°17'0 0.0
2018-Jul-14 18:00N 37°48' W 122°17'0 0.0
2018-Jul-14 17:30N 37°48' W 122°17'0 0.0
2018-Jul-14 17:00N 37°48' W 122°17'0 0.0
2018-Jul-14 16:30N 37°48' W 122°17'0 0.0
2018-Jul-14 16:00N 37°48' W 122°17'0 0.0
2018-Jul-14 15:30N 37°48' W 122°17'0 0.0
2018-Jul-14 15:00N 37°48' W 122°17'0 0.0
2018-Jul-14 14:31N 37°48' W 122°17'2 1.9
2018-Jul-14 13:30N 37°48' W 122°20'3 5.4
2018-Jul-14 13:01N 37°48' W 122°23'0 0.5
2018-Jul-14 12:31N 37°48' W 122°23'2 3.3
2018-Jul-14 12:00N 37°48' W 122°21'3 5.5
2018-Jul-14 11:30N 37°48' W 122°17'0 0.0
2018-Jul-14 11:00N 37°48' W 122°17'0 0.0
2018-Jul-14 10:30N 37°48' W 122°17'0 0.0
2018-Jul-14 10:00N 37°48' W 122°17'0 0.0
2018-Jul-14 09:30N 37°48' W 122°17'0 0.0
2018-Jul-14 09:00N 37°48' W 122°17'0 0.0
2018-Jul-14 08:30N 37°48' W 122°17'0 0.0
2018-Jul-14 08:00N 37°48' W 122°17'0 0.0
2018-Jul-14 07:30N 37°48' W 122°17'0 0.0
2018-Jul-14 07:00N 37°48' W 122°17'3 6.4
2018-Jul-14 06:30N 37°47' W 122°21'1 2.3
2018-Jul-14 06:00N 37°46' W 122°22'3 5.1
2018-Jul-14 05:30N 37°48' W 122°23'2 4.8
2018-Jul-14 05:00N 37°49' W 122°20'0 0.0
2018-Jul-14 04:30N 37°49' W 122°20'0 0.0
2018-Jul-14 04:00N 37°49' W 122°20'0 0.0
2018-Jul-14 03:30N 37°49' W 122°20'0 0.0
2018-Jul-14 03:00N 37°49' W 122°20'0 0.0
2018-Jul-14 02:30N 37°49' W 122°20'0 0.0
2018-Jul-14 02:00N 37°49' W 122°20'1 2.0
2018-Jul-14 01:30N 37°48' W 122°19'0 0.2
2018-Jul-14 01:00N 37°48' W 122°19'3 5.5
2018-Jul-14 00:30N 37°48' W 122°23'1 2.0
2018-Jul-14 00:00N 37°48' W 122°22'2 3.7
2018-Jul-13 23:30N 37°48' W 122°19'1 1.7
2018-Jul-13 23:00N 37°48' W 122°18'0 0.7
2018-Jul-13 22:30N 37°48' W 122°18'2 3.7
2018-Jul-13 22:00N 37°48' W 122°20'2 4.2
2018-Jul-13 21:30N 37°48' W 122°23'2 3.6
2018-Jul-13 21:00N 37°48' W 122°21'0 0.0
2018-Jul-13 20:30N 37°48' W 122°21'0 0.0
2018-Jul-13 20:00N 37°48' W 122°21'0 0.0
2018-Jul-13 19:30N 37°48' W 122°21'0 0.0
2018-Jul-13 19:00N 37°48' W 122°21'3 5.4
2018-Jul-13 18:30N 37°48' W 122°17'0 0.2
2018-Jul-13 18:00N 37°48' W 122°17'0 0.0
2018-Jul-13 17:30N 37°48' W 122°17'0 0.0
2018-Jul-13 17:00N 37°48' W 122°17'0 0.0
2018-Jul-13 16:30N 37°48' W 122°17'0 0.0
2018-Jul-13 16:00N 37°48' W 122°17'0 0.0
2018-Jul-13 15:30N 37°48' W 122°17'0 0.0
2018-Jul-13 15:00N 37°48' W 122°17'2 1.5
2018-Jul-13 14:01N 37°48' W 122°19'1 1.4
2018-Jul-13 13:30N 37°48' W 122°20'2 4.2
2018-Jul-13 13:00N 37°48' W 122°23'2 3.2
2018-Jul-13 12:30N 37°48' W 122°21'3 5.5
2018-Jul-13 12:00N 37°48' W 122°17'0 0.0
2018-Jul-13 11:30N 37°48' W 122°17'0 0.0
2018-Jul-13 11:00N 37°48' W 122°17'0 0.0
2018-Jul-13 10:30N 37°48' W 122°17'0 0.0
2018-Jul-13 10:00N 37°48' W 122°17'0 0.0
2018-Jul-13 09:30N 37°48' W 122°17'0 0.0
2018-Jul-13 09:00N 37°48' W 122°17'0 0.0
2018-Jul-13 08:30N 37°48' W 122°17'0 0.0
2018-Jul-13 08:00N 37°48' W 122°17'0 0.0
2018-Jul-13 07:30N 37°48' W 122°17'0 0.0
2018-Jul-13 07:00N 37°48' W 122°17'0 0.0
2018-Jul-13 06:30N 37°48' W 122°17'0 0.0
2018-Jul-13 06:00N 37°48' W 122°17'0 0.0
2018-Jul-13 05:30N 37°48' W 122°17'0 0.0
2018-Jul-13 05:00N 37°48' W 122°17'0 0.0
2018-Jul-13 04:30N 37°48' W 122°17'0 0.0
2018-Jul-13 04:00N 37°48' W 122°17'0 0.0
2018-Jul-13 03:30N 37°48' W 122°17'0 0.0
2018-Jul-13 03:00N 37°48' W 122°17'0 0.0
2018-Jul-13 02:30N 37°48' W 122°17'0 0.0
2018-Jul-13 02:00N 37°48' W 122°17'1 3.0
2018-Jul-13 01:30N 37°48' W 122°19'1 2.6
2018-Jul-13 01:00N 37°48' W 122°20'0 0.1
2018-Jul-13 00:30N 37°48' W 122°20'3 5.4
2018-Jul-13 00:00N 37°48' W 122°17'0 0.0
2018-Jul-12 23:30N 37°48' W 122°17'0 0.0
2018-Jul-12 23:00N 37°48' W 122°17'0 0.0
2018-Jul-12 22:30N 37°48' W 122°17'0 0.0
2018-Jul-12 22:00N 37°48' W 122°17'0 0.0
2018-Jul-12 21:30N 37°48' W 122°17'0 0.0
2018-Jul-12 21:00N 37°48' W 122°17'0 0.0
2018-Jul-12 20:30N 37°48' W 122°17'0 0.0
2018-Jul-12 20:00N 37°48' W 122°17'0 0.0
2018-Jul-12 19:30N 37°48' W 122°17'0 0.0
2018-Jul-12 19:00N 37°48' W 122°17'0 0.0
2018-Jul-12 18:30N 37°48' W 122°17'0 0.0
2018-Jul-12 18:00N 37°48' W 122°17'0 0.0
2018-Jul-12 17:30N 37°48' W 122°17'0 0.0
2018-Jul-12 17:00N 37°48' W 122°17'0 0.0
2018-Jul-12 16:29N 37°48' W 122°17'0 0.0
2018-Jul-12 16:00N 37°48' W 122°17'0 0.0
2018-Jul-12 15:30N 37°48' W 122°17'0 0.0
2018-Jul-12 15:00N 37°48' W 122°17'0 0.0
2018-Jul-12 14:30N 37°48' W 122°17'0 0.0
2018-Jul-12 14:00N 37°48' W 122°17'0 0.0
2018-Jul-12 13:30N 37°48' W 122°17'1 2.8
2018-Jul-12 13:00N 37°48' W 122°19'0 0.9
2018-Jul-12 12:30N 37°48' W 122°18'0 0.3
2018-Jul-12 12:00N 37°48' W 122°18'3 6.2
2018-Jul-12 11:31N 37°48' W 122°22'0 0.4
2018-Jul-12 11:01N 37°48' W 122°22'1 2.6
2018-Jul-12 10:31N 37°48' W 122°20'2 4.7
2018-Jul-12 10:00N 37°48' W 122°18'0 0.0
2018-Jul-12 09:31N 37°48' W 122°18'0 0.1
2018-Jul-12 09:00N 37°48' W 122°18'0 0.3
2018-Jul-12 08:30N 37°48' W 122°18'1 1.1
2018-Jul-12 08:00N 37°48' W 122°17'0 0.0
2018-Jul-12 07:30N 37°48' W 122°17'0 0.0
2018-Jul-12 07:00N 37°48' W 122°17'0 0.0
2018-Jul-12 06:30N 37°48' W 122°17'0 0.0
2018-Jul-12 05:59N 37°48' W 122°17'0 0.0
2018-Jul-12 05:30N 37°48' W 122°17'0 0.0
2018-Jul-12 05:00N 37°48' W 122°17'0 0.0
2018-Jul-12 04:30N 37°48' W 122°17'0 0.0
2018-Jul-12 04:00N 37°48' W 122°17'0 0.0
2018-Jul-12 03:30N 37°48' W 122°17'0 0.0
2018-Jul-12 03:00N 37°48' W 122°17'1 2.7
2018-Jul-12 02:31N 37°48' W 122°19'1 2.2
2018-Jul-12 02:00N 37°48' W 122°17'1 2.7
2018-Jul-12 01:30N 37°48' W 122°19'0 0.2
2018-Jul-12 01:00N 37°48' W 122°19'0 0.1
2018-Jul-12 00:30N 37°48' W 122°19'1 2.2
2018-Jul-12 00:00N 37°48' W 122°21'0 0.0
2018-Jul-11 23:30N 37°48' W 122°21'0 0.0
2018-Jul-11 23:00N 37°48' W 122°21'1 2.9
2018-Jul-11 22:31N 37°48' W 122°19'0 0.0
2018-Jul-11 22:00N 37°48' W 122°19'1 2.6
2018-Jul-11 21:30N 37°47' W 122°17'0 0.0
2018-Jul-11 21:00N 37°47' W 122°17'0 0.0
2018-Jul-11 20:30N 37°48' W 122°17'0 0.2
2018-Jul-11 20:00N 37°48' W 122°17'0 0.0
2018-Jul-11 19:30N 37°48' W 122°17'0 0.0
2018-Jul-11 19:00N 37°48' W 122°17'0 0.0
2018-Jul-11 18:30N 37°48' W 122°17'0 0.0
2018-Jul-11 18:00N 37°48' W 122°17'0 0.0
2018-Jul-11 17:28N 37°48' W 122°17'0 0.0
2018-Jul-11 17:00N 37°48' W 122°17'0 0.0
2018-Jul-11 16:30N 37°48' W 122°17'0 0.0
2018-Jul-11 15:59N 37°48' W 122°17'0 0.0
2018-Jul-11 15:30N 37°48' W 122°17'0 0.0
2018-Jul-11 15:00N 37°48' W 122°17'0 0.0
2018-Jul-11 14:29N 37°48' W 122°17'0 0.0
2018-Jul-11 14:00N 37°48' W 122°17'1 1.5
2018-Jul-11 13:30N 37°48' W 122°18'0 0.4
2018-Jul-11 13:00N 37°48' W 122°18'0 0.6
2018-Jul-11 12:31N 37°48' W 122°17'1 2.3
2018-Jul-11 12:00N 37°48' W 122°19'3 6.5
2018-Jul-11 11:31N 37°48' W 122°23'1 2.5
2018-Jul-11 11:00N 37°48' W 122°21'3 5.4
2018-Jul-11 10:30N 37°48' W 122°18'1 1.4
2018-Jul-11 10:00N 37°48' W 122°17'0 0.0
2018-Jul-11 09:30N 37°48' W 122°17'0 0.0
2018-Jul-11 09:00N 37°48' W 122°17'0 0.0
2018-Jul-11 08:30N 37°48' W 122°17'0 0.0
2018-Jul-11 08:00N 37°48' W 122°17'0 0.0
2018-Jul-11 07:30N 37°48' W 122°17'0 0.0
2018-Jul-11 07:00N 37°48' W 122°17'0 0.0
2018-Jul-11 06:30N 37°48' W 122°17'0 0.0
2018-Jul-11 06:00N 37°48' W 122°17'0 0.0
2018-Jul-11 05:30N 37°48' W 122°17'0 0.0
2018-Jul-11 05:00N 37°48' W 122°17'0 0.0
2018-Jul-11 04:30N 37°48' W 122°17'0 0.0
2018-Jul-11 04:00N 37°48' W 122°17'0 0.0
2018-Jul-11 03:30N 37°48' W 122°17'2 3.2
2018-Jul-11 03:00N 37°48' W 122°19'1 3.0
2018-Jul-11 02:30N 37°48' W 122°17'1 1.8
2018-Jul-11 02:01N 37°48' W 122°18'0 0.7
2018-Jul-11 01:30N 37°48' W 122°19'0 0.1
2018-Jul-11 01:00N 37°48' W 122°19'1 2.6
2018-Jul-11 00:30N 37°48' W 122°17'1 2.9
2018-Jul-11 00:00N 37°48' W 122°19'3 5.9
2018-Jul-10 23:30N 37°48' W 122°23'0 0.2
2018-Jul-10 23:00N 37°48' W 122°23'3 5.8
2018-Jul-10 22:30N 37°48' W 122°19'2 3.0
2018-Jul-10 22:00N 37°48' W 122°17'0 0.0
2018-Jul-10 21:30N 37°48' W 122°17'0 0.0
2018-Jul-10 21:00N 37°48' W 122°17'0 0.0
2018-Jul-10 20:30N 37°48' W 122°17'0 0.0
2018-Jul-10 20:00N 37°48' W 122°17'0 0.0
2018-Jul-10 19:30N 37°48' W 122°17'0 0.0
2018-Jul-10 19:00N 37°48' W 122°17'0 0.0
2018-Jul-10 18:30N 37°48' W 122°17'0 0.0
2018-Jul-10 18:00N 37°48' W 122°17'0 0.0
2018-Jul-10 17:30N 37°48' W 122°17'0 0.0
2018-Jul-10 17:00N 37°48' W 122°17'0 0.0
2018-Jul-10 16:30N 37°48' W 122°17'0 0.0
2018-Jul-10 16:00N 37°48' W 122°17'0 0.0
2018-Jul-10 15:30N 37°48' W 122°17'0 0.0
2018-Jul-10 14:59N 37°48' W 122°17'0 0.0
2018-Jul-10 14:30N 37°48' W 122°17'0 0.2
2018-Jul-10 14:00N 37°48' W 122°17'1 1.1
2018-Jul-10 13:31N 37°48' W 122°18'1 2.3
2018-Jul-10 13:00N 37°48' W 122°19'2 3.1
2018-Jul-10 12:30N 37°48' W 122°17'1 2.4
2018-Jul-10 12:00N 37°48' W 122°19'3 6.0
2018-Jul-10 11:30N 37°48' W 122°23'4 8.7
2018-Jul-10 11:00N 37°48' W 122°17'0 0.0
2018-Jul-10 10:30N 37°48' W 122°17'0 0.0
2018-Jul-10 10:00N 37°48' W 122°17'0 0.0
2018-Jul-10 09:30N 37°48' W 122°17'0 0.0
2018-Jul-10 09:00N 37°48' W 122°17'0 0.0
2018-Jul-10 08:30N 37°48' W 122°17'0 0.0
2018-Jul-10 08:00N 37°48' W 122°17'0 0.0
2018-Jul-10 07:30N 37°48' W 122°17'0 0.0
2018-Jul-10 07:00N 37°48' W 122°17'0 0.0
2018-Jul-10 06:30N 37°48' W 122°17'0 0.0
2018-Jul-10 06:00N 37°48' W 122°17'0 0.0
2018-Jul-10 05:30N 37°48' W 122°17'0 0.0
2018-Jul-10 05:00N 37°48' W 122°17'0 0.0
2018-Jul-10 04:30N 37°48' W 122°17'2 4.8
2018-Jul-10 04:00N 37°48' W 122°20'4 8.1
2018-Jul-10 03:30N 37°44' W 122°20'4 8.0
2018-Jul-10 03:00N 37°48' W 122°22'3 6.7
2018-Jul-10 02:30N 37°48' W 122°18'1 1.6
2018-Jul-10 02:00N 37°48' W 122°19'0 0.2
2018-Jul-10 01:30N 37°48' W 122°19'0 0.0
2018-Jul-10 01:00N 37°48' W 122°19'1 1.5
2018-Jul-10 00:30N 37°48' W 122°20'2 4.7
2018-Jul-10 00:00N 37°48' W 122°23'2 3.1
2018-Jul-09 23:30N 37°48' W 122°21'0 0.0
2018-Jul-09 23:00N 37°48' W 122°21'1 2.5
2018-Jul-09 22:30N 37°48' W 122°22'510.0
2018-Jul-09 22:00N 37°53' W 122°25'3 5.2
2018-Jul-09 21:30N 37°55' W 122°25'0 0.1
2018-Jul-09 20:59N 37°55' W 122°25'3 5.3
2018-Jul-09 20:30N 37°53' W 122°25'0 0.8
2018-Jul-09 20:00N 37°53' W 122°25'2 3.4
2018-Jul-09 19:30N 37°51' W 122°24'3 6.2
2018-Jul-09 19:00N 37°48' W 122°22'4 7.8
2018-Jul-09 18:30N 37°48' W 122°17'0 0.0
2018-Jul-09 18:01N 37°48' W 122°17'0 0.0
2018-Jul-09 17:30N 37°48' W 122°17'0 0.0
2018-Jul-09 17:00N 37°48' W 122°17'0 0.0
2018-Jul-09 16:30N 37°48' W 122°17'0 0.0
2018-Jul-09 16:00N 37°48' W 122°17'1 1.2
2018-Jul-09 15:30N 37°48' W 122°18'1 2.1
2018-Jul-09 15:01N 37°48' W 122°19'2 4.3
2018-Jul-09 14:31N 37°48' W 122°22'1 1.3
2018-Jul-09 14:01N 37°48' W 122°23'4 8.3
2018-Jul-09 13:31N 37°48' W 122°17'0 0.4
2018-Jul-09 13:00N 37°48' W 122°17'0 0.0
2018-Jul-09 12:30N 37°48' W 122°17'0 0.0
2018-Jul-09 12:00N 37°48' W 122°17'0 0.0
2018-Jul-09 11:30N 37°48' W 122°17'0 0.0
2018-Jul-09 11:00N 37°48' W 122°17'0 0.0
2018-Jul-09 10:30N 37°48' W 122°17'0 0.0
2018-Jul-09 10:00N 37°48' W 122°17'0 0.0
2018-Jul-09 09:27N 37°48' W 122°17'0 0.0
2018-Jul-09 09:00N 37°48' W 122°17'0 0.0
2018-Jul-09 08:30N 37°48' W 122°17'0 0.0
2018-Jul-09 08:00N 37°48' W 122°17'0 0.0
2018-Jul-09 07:30N 37°48' W 122°17'0 0.0
2018-Jul-09 07:00N 37°48' W 122°17'0 0.0
2018-Jul-09 06:30N 37°48' W 122°17'0 0.0
2018-Jul-09 06:00N 37°48' W 122°17'0 0.0
2018-Jul-09 05:30N 37°48' W 122°17'0 0.0
2018-Jul-09 05:00N 37°48' W 122°17'0 0.0
2018-Jul-09 04:30N 37°48' W 122°17'0 0.0
2018-Jul-09 04:00N 37°48' W 122°17'0 0.0
2018-Jul-09 03:30N 37°48' W 122°17'0 0.0
2018-Jul-09 03:00N 37°48' W 122°17'0 0.0
2018-Jul-09 02:30N 37°48' W 122°17'0 0.0
2018-Jul-09 02:00N 37°48' W 122°17'0 0.0
2018-Jul-09 01:29N 37°48' W 122°17'0 0.0
2018-Jul-09 01:00N 37°48' W 122°17'0 0.0
2018-Jul-09 00:30N 37°48' W 122°17'0 0.0
2018-Jul-09 00:00N 37°48' W 122°17'0 0.0
2018-Jul-08 23:30N 37°48' W 122°17'0 0.0
2018-Jul-08 23:00N 37°48' W 122°17'0 0.0
2018-Jul-08 22:30N 37°48' W 122°17'0 0.0
2018-Jul-08 22:00N 37°48' W 122°17'0 0.0
2018-Jul-08 21:30N 37°48' W 122°17'0 0.0
2018-Jul-08 21:00N 37°48' W 122°17'0 0.0
2018-Jul-08 20:30N 37°48' W 122°17'0 0.0
2018-Jul-08 20:00N 37°48' W 122°17'0 0.0
2018-Jul-08 19:30N 37°48' W 122°17'0 0.0
2018-Jul-08 19:00N 37°48' W 122°17'0 0.0
2018-Jul-08 18:30N 37°48' W 122°17'0 0.0
2018-Jul-08 18:00N 37°48' W 122°17'0 0.0
2018-Jul-08 17:30N 37°48' W 122°17'0 0.0
2018-Jul-08 17:00N 37°48' W 122°17'0 0.0
2018-Jul-08 16:30N 37°48' W 122°17'0 0.0
2018-Jul-08 16:00N 37°48' W 122°17'0 0.0
2018-Jul-08 15:30N 37°48' W 122°17'0 0.0
2018-Jul-08 15:00N 37°48' W 122°17'0 0.0
2018-Jul-08 14:30N 37°48' W 122°17'0 0.0
2018-Jul-08 13:59N 37°48' W 122°17'0 0.0
2018-Jul-08 13:30N 37°48' W 122°17'0 0.0
2018-Jul-08 13:00N 37°48' W 122°17'2 3.5
2018-Jul-08 12:30N 37°48' W 122°19'1 1.6
2018-Jul-08 12:01N 37°48' W 122°20'0 0.2
2018-Jul-08 11:30N 37°48' W 122°20'1 2.6
2018-Jul-08 11:00N 37°48' W 122°19'0 0.1
2018-Jul-08 10:31N 37°48' W 122°18'1 2.2
2018-Jul-08 10:00N 37°48' W 122°17'0 0.0
2018-Jul-08 09:30N 37°48' W 122°17'0 0.0
2018-Jul-08 09:00N 37°48' W 122°17'0 0.0
2018-Jul-08 08:30N 37°48' W 122°17'0 0.0
2018-Jul-08 08:00N 37°48' W 122°17'0 0.0
2018-Jul-08 07:30N 37°48' W 122°17'0 0.0
2018-Jul-08 07:00N 37°48' W 122°17'0 0.0
2018-Jul-08 06:30N 37°48' W 122°17'0 0.0
2018-Jul-08 06:00N 37°48' W 122°17'4 8.7
2018-Jul-08 05:30N 37°48' W 122°23'5 9.6
2018-Jul-08 05:00N 37°53' W 122°25'8 9.7
2018-Jul-08 04:12N 38°01' W 122°24'2 9.3
2018-Jul-08 04:00N 38°02' W 122°22'4 8.7
2018-Jul-08 03:30N 38°03' W 122°17'4 8.1
2018-Jul-08 03:00N 38°04' W 122°12'4 7.0
2018-Jul-08 02:30N 38°03' W 122°08'0 0.6
2018-Jul-08 01:47N 38°02' W 122°08'2 5.0
2018-Jul-08 01:24N 38°03' W 122°11'6 8.5
2018-Jul-08 00:42N 38°03' W 122°18'3 8.5
2018-Jul-08 00:17N 38°02' W 122°22'610.8
2018-Jul-07 23:45N 37°57' W 122°27'311.5
2018-Jul-07 23:30N 37°55' W 122°27'510.8
2018-Jul-07 23:00N 37°50' W 122°24'5 9.1
2018-Jul-07 22:30N 37°46' W 122°21'0 0.5
2018-Jul-07 22:00N 37°46' W 122°21'2 3.4
2018-Jul-07 21:30N 37°47' W 122°22'4 8.6
2018-Jul-07 21:00N 37°49' W 122°27'3 5.5
2018-Jul-07 20:30N 37°48' W 122°30'0 0.2
2018-Jul-07 20:00N 37°48' W 122°30'2 3.3
2018-Jul-07 19:31N 37°49' W 122°29'510.8
2018-Jul-07 19:00N 37°48' W 122°22'1 2.0
2018-Jul-07 18:30N 37°48' W 122°21'0 0.0
2018-Jul-07 18:00N 37°48' W 122°21'0 0.0
2018-Jul-07 17:30N 37°48' W 122°21'0 0.0
2018-Jul-07 17:00N 37°48' W 122°21'0 0.0
2018-Jul-07 16:30N 37°48' W 122°21'2 3.8
2018-Jul-07 16:00N 37°47' W 122°21'2 3.5
2018-Jul-07 15:30N 37°48' W 122°20'0 0.9
2018-Jul-07 15:00N 37°48' W 122°20'1 1.4
2018-Jul-07 14:29N 37°48' W 122°19'1 2.6
2018-Jul-07 14:00N 37°48' W 122°17'0 0.0
2018-Jul-07 13:30N 37°48' W 122°17'0 0.0
2018-Jul-07 13:00N 37°48' W 122°17'0 0.0
2018-Jul-07 12:30N 37°48' W 122°17'1 2.1
2018-Jul-07 12:00N 37°48' W 122°18'1 1.5
2018-Jul-07 11:30N 37°48' W 122°19'1 2.3
2018-Jul-07 11:01N 37°48' W 122°18'0 0.9
2018-Jul-07 10:30N 37°48' W 122°18'1 1.3
2018-Jul-07 10:00N 37°48' W 122°19'0 0.0
2018-Jul-07 09:30N 37°48' W 122°19'2 3.5
2018-Jul-07 09:00N 37°48' W 122°17'0 0.0
2018-Jul-07 08:30N 37°48' W 122°17'0 0.0
2018-Jul-07 08:00N 37°48' W 122°17'0 0.0
2018-Jul-07 07:30N 37°48' W 122°17'0 0.0
2018-Jul-07 07:00N 37°48' W 122°17'0 0.0
2018-Jul-07 06:31N 37°48' W 122°17'0 0.0
2018-Jul-07 06:00N 37°48' W 122°17'0 0.0
2018-Jul-07 05:30N 37°48' W 122°17'0 0.0
2018-Jul-07 05:00N 37°48' W 122°17'0 0.0
2018-Jul-07 04:30N 37°48' W 122°17'0 0.0
2018-Jul-07 04:00N 37°48' W 122°17'0 0.7
2018-Jul-07 03:30N 37°48' W 122°18'0 0.7
2018-Jul-07 03:00N 37°48' W 122°17'0 0.0
2018-Jul-07 02:30N 37°48' W 122°17'0 0.0
2018-Jul-07 02:00N 37°48' W 122°17'  

Dump ship's entire track history